Time;durP1;ratioP1;P1;durP2;ratioP2;P2;SDS_P1;SDS_P2;PMS_P1;PMS_P2;Temp;Humidity;BMP_temperature;BMP_pressure;BME280_temperature;BME280_humidity;BME280_pressure;Samples;Min_cycle;Max_cycle;Signal;HPM_P1;HPM_P2
2022/08/18 00:01:14;;;;;;;25.55;20.38;;;;;;;;;;6199424;28;20010;-80
2022/08/18 00:04:15;;;;;;;24.17;19.90;;;;;;;;;;6193638;28;20120;-79
2022/08/18 00:07:17;;;;;;;22.63;18.80;;;;;;;;;;6189708;28;20422;-79
2022/08/18 00:10:18;;;;;;;24.40;19.55;;;;;;;;;;6194359;28;20019;-79
2022/08/18 00:13:18;;;;;;;23.23;18.27;;;;;;;;;;6187766;28;20066;-79
2022/08/18 00:16:18;;;;;;;21.20;16.93;;;;;;;;;;6201697;28;20030;-79
2022/08/18 00:19:19;;;;;;;28.23;18.40;;;;;;;;;;6201454;28;20057;-79
2022/08/18 00:22:20;;;;;;;25.23;19.05;;;;;;;;;;6190718;28;20423;-79
2022/08/18 00:25:21;;;;;;;25.43;19.93;;;;;;;;;;6197000;28;20025;-79
2022/08/18 00:28:21;;;;;;;28.03;20.43;;;;;;;;;;6210568;28;20026;-79
2022/08/18 00:31:23;;;;;;;26.20;19.80;;;;;;;;;;6197335;28;20040;-79
2022/08/18 00:34:23;;;;;;;25.25;17.33;;;;;;;;;;6209064;28;20101;-79
2022/08/18 00:37:23;;;;;;;24.30;18.17;;;;;;;;;;6194612;28;20041;-79
2022/08/18 00:40:28;;;;;;;20.80;15.60;;;;;;;;;;6199413;28;20022;-79
2022/08/18 00:43:47;;;;;;;16.23;13.38;;;;;;;;;;6192518;28;20022;-79
2022/08/18 00:46:47;;;;;;;19.00;14.68;;;;;;;;;;6193773;28;20379;-79
2022/08/18 00:49:50;;;;;;;19.05;14.18;;;;;;;;;;6195832;28;20018;-79
2022/08/18 00:52:52;;;;;;;15.15;12.90;;;;;;;;;;6196978;28;20018;-79
2022/08/18 00:55:54;;;;;;;19.05;15.38;;;;;;;;;;6190296;28;20034;-79
2022/08/18 00:58:56;;;;;;;19.58;13.63;;;;;;;;;;6191687;28;20676;-79
2022/08/18 01:02:01;;;;;;;22.38;15.07;;;;;;;;;;6193738;28;20482;-79
2022/08/18 01:05:05;;;;;;;19.42;15.23;;;;;;;;;;6199586;28;20026;-79
2022/08/18 01:08:10;;;;;;;21.50;17.15;;;;;;;;;;6191032;28;20651;-79
2022/08/18 01:11:10;;;;;;;20.35;16.25;;;;;;;;;;6188005;28;20647;-79
2022/08/18 01:14:14;;;;;;;21.20;16.87;;;;;;;;;;6188780;28;20049;-79
2022/08/18 01:27:46;;;;;;;22.27;17.50;;;;;;;;;;6195603;28;20113;-79
2022/08/18 01:30:48;;;;;;;23.87;16.73;;;;;;;;;;6197380;28;20024;-79
2022/08/18 01:33:48;;;;;;;;;;;;;;;;;;6192579;28;20037;-78
2022/08/18 01:36:51;;;;;;;21.15;18.08;;;;;;;;;;6193560;28;19909;-78
2022/08/18 01:39:51;;;;;;;24.65;19.40;;;;;;;;;;6199814;28;20026;-79
2022/08/18 01:42:51;;;;;;;26.77;18.07;;;;;;;;;;6183113;28;20019;-79
2022/08/18 01:45:52;;;;;;;23.00;18.37;;;;;;;;;;6193211;28;20465;-79
2022/08/18 01:48:52;;;;;;;25.17;16.70;;;;;;;;;;6187187;28;20015;-79
2022/08/18 01:51:54;;;;;;;24.43;17.80;;;;;;;;;;6189363;28;20085;-79
2022/08/18 01:54:56;;;;;;;22.02;18.15;;;;;;;;;;6196405;28;20022;-79
2022/08/18 01:57:56;;;;;;;28.45;17.63;;;;;;;;;;6187717;28;20097;-79
2022/08/18 02:01:00;;;;;;;24.10;17.90;;;;;;;;;;6186283;28;20007;-79
2022/08/18 02:04:01;;;;;;;21.02;16.83;;;;;;;;;;6186288;28;20027;-79
2022/08/18 02:07:02;;;;;;;22.83;17.77;;;;;;;;;;6188835;28;20498;-78
2022/08/18 02:10:05;;;;;;;17.90;15.83;;;;;;;;;;6193813;28;20076;-78
2022/08/18 02:13:06;;;;;;;20.88;16.38;;;;;;;;;;6193102;28;20014;-78
2022/08/18 02:16:06;;;;;;;18.60;15.93;;;;;;;;;;6192484;28;20483;-78
2022/08/18 02:19:06;;;;;;;25.27;15.87;;;;;;;;;;6192651;28;20041;-79
2022/08/18 02:22:08;;;;;;;24.90;19.23;;;;;;;;;;6182352;28;20547;-79
2022/08/18 02:25:10;;;;;;;27.05;21.38;;;;;;;;;;6183950;28;20030;-79
2022/08/18 02:28:10;;;;;;;24.60;18.83;;;;;;;;;;6189359;28;20029;-79
2022/08/18 02:31:13;;;;;;;24.43;19.30;;;;;;;;;;6191074;28;20019;-79
2022/08/18 02:34:14;;;;;;;23.45;16.95;;;;;;;;;;6188648;28;20391;-79
2022/08/18 02:37:14;;;;;;;24.38;19.23;;;;;;;;;;6186471;28;20070;-78
2022/08/18 02:40:14;;;;;;;27.77;17.37;;;;;;;;;;6187462;28;20025;-78
2022/08/18 02:43:16;;;;;;;23.73;18.07;;;;;;;;;;6182447;28;20019;-79
2022/08/18 02:46:16;;;;;;;22.95;18.77;;;;;;;;;;6183698;28;20033;-78
2022/08/18 02:49:16;;;;;;;24.30;18.77;;;;;;;;;;6186050;28;20023;-78
2022/08/18 02:52:16;;;;;;;23.85;18.75;;;;;;;;;;6188708;28;20189;-79
2022/08/18 02:55:16;;;;;;;22.37;18.83;;;;;;;;;;6177854;28;20089;-79
2022/08/18 02:58:19;;;;;;;23.30;18.10;;;;;;;;;;6182065;28;21338;-79
2022/08/18 03:01:24;;;;;;;25.88;17.08;;;;;;;;;;6200963;28;20018;-79
2022/08/18 03:04:26;;;;;;;23.85;17.80;;;;;;;;;;6206805;28;20767;-79
2022/08/18 03:07:26;;;;;;;22.85;18.35;;;;;;;;;;6184365;28;20113;-79
2022/08/18 03:10:26;;;;;;;24.20;17.03;;;;;;;;;;6191096;28;20467;-79
2022/08/18 03:13:28;;;;;;;26.05;18.92;;;;;;;;;;6199622;28;20398;-79
2022/08/18 03:16:31;;;;;;;;;;;;;;;;;;6199663;28;20468;-79
2022/08/18 03:19:31;;;;;;;21.50;16.35;;;;;;;;;;6196990;28;19910;-79
2022/08/18 03:22:32;;;;;;;23.57;18.07;;;;;;;;;;6200011;28;20040;-79
2022/08/18 03:25:33;;;;;;;25.07;18.17;;;;;;;;;;6189099;28;20014;-79
2022/08/18 03:28:33;;;;;;;24.27;18.25;;;;;;;;;;6194495;28;20264;-79
2022/08/18 03:31:34;;;;;;;21.47;15.77;;;;;;;;;;6189865;28;20072;-79
2022/08/18 03:34:35;;;;;;;21.50;16.90;;;;;;;;;;6192513;28;20126;-79
2022/08/18 03:37:35;;;;;;;27.83;17.87;;;;;;;;;;6185771;28;20374;-79
2022/08/18 03:40:36;;;;;;;22.17;16.80;;;;;;;;;;6180699;28;20019;-79
2022/08/18 03:43:36;;;;;;;24.30;18.50;;;;;;;;;;6183150;28;20065;-78
2022/08/18 03:46:38;;;;;;;20.07;16.73;;;;;;;;;;6197611;28;20055;-78
2022/08/18 03:49:40;;;;;;;23.02;17.40;;;;;;;;;;6180417;28;20139;-79
2022/08/18 03:52:40;;;;;;;21.90;17.38;;;;;;;;;;6191221;28;20450;-79
2022/08/18 03:55:40;;;;;;;23.63;18.00;;;;;;;;;;6197818;28;20030;-79
2022/08/18 03:58:46;;;;;;;26.57;18.73;;;;;;;;;;6190233;28;20121;-79
2022/08/18 04:01:47;;;;;;;24.48;18.17;;;;;;;;;;6190049;28;20434;-79
2022/08/18 04:04:48;;;;;;;22.90;18.08;;;;;;;;;;6190472;28;20033;-79
2022/08/18 04:07:48;;;;;;;27.83;17.93;;;;;;;;;;6186260;28;20026;-79
2022/08/18 04:10:48;;;;;;;27.13;18.53;;;;;;;;;;6182340;28;20034;-79
2022/08/18 04:13:49;;;;;;;23.45;19.00;;;;;;;;;;6196587;28;20022;-79
2022/08/18 04:16:49;;;;;;;24.93;17.47;;;;;;;;;;6187576;28;20479;-79
2022/08/18 04:19:51;;;;;;;22.57;17.50;;;;;;;;;;6191749;28;20414;-80
2022/08/18 04:22:51;;;;;;;22.65;16.75;;;;;;;;;;6191388;28;20058;-79
2022/08/18 04:25:58;;;;;;;22.15;16.23;;;;;;;;;;6193669;28;20029;-79
2022/08/18 04:29:01;;;;;;;20.65;16.83;;;;;;;;;;6195330;28;20037;-78
2022/08/18 04:32:03;;;;;;;18.88;16.45;;;;;;;;;;6197063;28;20168;-78
2022/08/18 04:35:03;;;;;;;;;;;;;;;;;;6192965;28;20018;-78
2022/08/18 04:38:03;;;;;;;25.85;18.25;;;;;;;;;;6188946;28;19917;-78
2022/08/18 04:41:04;;;;;;;28.57;20.20;;;;;;;;;;6188936;28;20048;-78
2022/08/18 04:44:06;;;;;;;26.43;20.77;;;;;;;;;;6197505;28;20392;-78
2022/08/18 04:47:08;;;;;;;29.58;22.08;;;;;;;;;;6193228;28;20680;-79
2022/08/18 04:50:08;;;;;;;;;;;;;;;;;;6195916;28;20011;-79
2022/08/18 04:56:32;;;;;;;31.63;22.35;;;;;;;;;;6190241;28;20034;-78
2022/08/18 04:59:32;;;;;;;26.60;21.30;;;;;;;;;;6197816;28;20026;-79
2022/08/18 05:02:33;;;;;;;26.33;21.73;;;;;;;;;;6189829;28;20025;-79
2022/08/18 05:05:34;;;;;;;23.88;19.95;;;;;;;;;;6195345;28;20011;-78
2022/08/18 05:08:34;;;;;;;22.87;18.87;;;;;;;;;;6196357;28;20494;-79
2022/08/18 05:11:36;;;;;;;24.97;19.30;;;;;;;;;;6196463;28;20578;-79
2022/08/18 05:14:36;;;;;;;25.52;18.67;;;;;;;;;;6192536;28;20390;-79
2022/08/18 05:17:38;;;;;;;22.77;17.23;;;;;;;;;;6184687;28;20015;-79
2022/08/18 05:20:39;;;;;;;21.05;16.48;;;;;;;;;;6186984;28;20022;-79
2022/08/18 05:23:43;;;;;;;20.60;14.90;;;;;;;;;;6190373;28;20069;-79
2022/08/18 05:26:44;;;;;;;20.80;15.57;;;;;;;;;;6199421;28;20007;-79
2022/08/18 05:29:44;;;;;;;20.63;15.38;;;;;;;;;;6183781;28;20030;-79
2022/08/18 05:32:45;;;;;;;21.63;14.80;;;;;;;;;;6189809;28;20022;-79
2022/08/18 05:35:48;;;;;;;21.08;15.93;;;;;;;;;;6200864;28;20609;-80
2022/08/18 05:38:54;;;;;;;26.85;14.98;;;;;;;;;;6193666;28;20419;-80
2022/08/18 05:42:10;;;;;;;19.50;14.70;;;;;;;;;;6192562;28;20015;-80
2022/08/18 05:45:11;;;;;;;22.52;16.17;;;;;;;;;;6191864;28;20010;-80
2022/08/18 05:48:12;;;;;;;19.33;14.73;;;;;;;;;;6198677;28;20536;-80
2022/08/18 05:51:16;;;;;;;24.90;14.90;;;;;;;;;;6192071;28;20033;-80
2022/08/18 05:57:41;;;;;;;19.33;13.60;;;;;;;;;;6187732;28;20094;-80
2022/08/18 06:00:46;;;;;;;15.77;12.50;;;;;;;;;;6196885;28;20105;-80
2022/08/18 06:03:53;;;;;;;21.20;14.27;;;;;;;;;;6199322;28;20097;-80
2022/08/18 06:06:56;;;;;;;17.63;13.18;;;;;;;;;;6196437;28;20042;-79
2022/08/18 06:09:56;;;;;;;17.95;13.60;;;;;;;;;;6178090;28;20363;-80
2022/08/18 06:12:58;;;;;;;20.10;13.60;;;;;;;;;;6187651;28;20025;-79
2022/08/18 06:16:05;;;;;;;18.25;13.52;;;;;;;;;;6192754;28;20514;-79
2022/08/18 06:19:14;;;;;;;16.10;12.63;;;;;;;;;;6186612;28;20035;-80
2022/08/18 06:22:21;;;;;;;18.20;12.80;;;;;;;;;;6193412;28;20030;-79
2022/08/18 06:25:33;;;;;;;14.23;12.02;;;;;;;;;;6189343;28;20038;-79
2022/08/18 06:28:46;;;;;;;18.45;12.90;;;;;;;;;;6192718;28;20038;-79
2022/08/18 06:32:05;;;;;;;16.33;11.43;;;;;;;;;;6188408;28;20475;-79
2022/08/18 06:35:13;;;;;;;15.30;11.40;;;;;;;;;;6195788;28;20022;-79
2022/08/18 06:41:37;;;;;;;15.68;11.55;;;;;;;;;;6196785;28;20615;-79
2022/08/18 06:44:47;;;;;;;19.23;11.32;;;;;;;;;;6190485;28;20034;-79
2022/08/18 06:47:58;;;;;;;14.85;10.38;;;;;;;;;;6187377;28;20050;-80
2022/08/18 06:51:00;;;;;;;18.33;10.93;;;;;;;;;;6200340;28;20133;-80
2022/08/18 06:54:02;;;;;;;16.85;11.48;;;;;;;;;;6200700;28;20018;-80
2022/08/18 06:57:02;;;;;;;15.57;10.77;;;;;;;;;;6193291;28;20806;-80
2022/08/18 07:00:02;;;;;;;14.00;10.67;;;;;;;;;;6202862;28;20015;-80
2022/08/18 07:03:13;;;;;;;17.57;10.13;;;;;;;;;;6199438;28;20117;-80
2022/08/18 07:06:13;;;;;;;;;;;;;;;;;;6195814;28;20014;-80
2022/08/18 07:09:18;;;;;;;17.08;9.75;;;;;;;;;;6201217;28;19910;-79
2022/08/18 07:12:21;;;;;;;21.05;9.95;;;;;;;;;;6190592;28;20019;-79
2022/08/18 07:15:24;;;;;;;13.88;10.13;;;;;;;;;;6201278;28;20086;-79
2022/08/18 07:18:26;;;;;;;13.80;9.20;;;;;;;;;;6188115;28;20011;-79
2022/08/18 07:21:28;;;;;;;15.35;10.02;;;;;;;;;;6204424;28;20019;-79
2022/08/18 07:24:30;;;;;;;14.05;9.10;;;;;;;;;;6195232;28;20026;-79
2022/08/18 07:27:42;;;;;;;12.35;9.27;;;;;;;;;;6186925;28;20086;-79
2022/08/18 07:30:42;;;;;;;13.10;8.93;;;;;;;;;;6194748;28;20022;-79
2022/08/18 07:33:46;;;;;;;15.93;9.27;;;;;;;;;;6185230;28;20018;-80
2022/08/18 07:36:53;;;;;;;11.98;8.52;;;;;;;;;;6192065;28;20022;-80
2022/08/18 07:39:55;;;;;;;11.65;8.75;;;;;;;;;;6184659;28;20022;-78
2022/08/18 07:43:02;;;;;;;12.40;8.68;;;;;;;;;;6187566;28;20053;-78
2022/08/18 07:46:09;;;;;;;12.02;8.60;;;;;;;;;;6181829;28;20030;-79
2022/08/18 07:49:15;;;;;;;13.27;8.63;;;;;;;;;;6200734;28;20117;-78
2022/08/18 07:52:20;;;;;;;11.57;8.30;;;;;;;;;;6191287;28;20083;-78
2022/08/18 07:55:25;;;;;;;14.10;7.75;;;;;;;;;;6197638;28;20105;-79
2022/08/18 07:58:31;;;;;;;13.13;8.80;;;;;;;;;;6188933;28;20046;-79
2022/08/18 08:01:54;;;;;;;11.63;8.13;;;;;;;;;;6191915;28;20027;-79
2022/08/18 08:05:01;;;;;;;14.75;8.57;;;;;;;;;;6186923;28;20031;-79
2022/08/18 08:08:08;;;;;;;12.63;7.97;;;;;;;;;;6200468;28;20128;-78
2022/08/18 08:11:15;;;;;;;11.18;7.65;;;;;;;;;;6199086;28;20023;-78
2022/08/18 08:14:15;;;;;;;11.98;9.05;;;;;;;;;;6195807;28;20121;-79
2022/08/18 08:17:16;;;;;;;10.00;7.50;;;;;;;;;;6197161;28;20014;-79
2022/08/18 08:20:16;;;;;;;10.80;8.43;;;;;;;;;;6196622;28;20022;-79
2022/08/18 08:23:17;;;;;;;11.73;8.37;;;;;;;;;;6196183;28;20031;-79
2022/08/18 08:26:17;;;;;;;11.20;8.07;;;;;;;;;;6194634;28;20022;-79
2022/08/18 08:29:17;;;;;;;11.57;8.15;;;;;;;;;;6199096;28;20069;-79
2022/08/18 08:32:27;;;;;;;13.17;8.43;;;;;;;;;;6196967;28;20860;-79
2022/08/18 08:35:46;;;;;;;13.48;8.40;;;;;;;;;;6193396;28;20018;-78
2022/08/18 08:39:01;;;;;;;11.70;7.85;;;;;;;;;;6193892;28;20070;-78
2022/08/18 08:42:18;;;;;;;13.15;7.18;;;;;;;;;;6193556;28;20864;-79
2022/08/18 08:45:27;;;;;;;14.25;8.65;;;;;;;;;;6196621;28;20023;-78
2022/08/18 08:48:29;;;;;;;16.02;8.05;;;;;;;;;;6207644;28;20019;-78
2022/08/18 08:51:30;;;;;;;14.48;7.82;;;;;;;;;;6195695;28;20027;-78
2022/08/18 08:54:36;;;;;;;15.37;9.23;;;;;;;;;;6197564;28;20014;-79
2022/08/18 08:57:39;;;;;;;11.65;8.43;;;;;;;;;;6197433;28;20077;-79
2022/08/18 09:00:41;;;;;;;15.60;8.82;;;;;;;;;;6195022;28;20044;-79
2022/08/18 09:03:47;;;;;;;9.27;7.97;;;;;;;;;;6197712;28;20014;-78
2022/08/18 09:07:06;;;;;;;15.40;8.80;;;;;;;;;;6189683;28;20030;-79
2022/08/18 09:10:09;;;;;;;13.20;8.15;;;;;;;;;;6195814;28;20097;-78
2022/08/18 09:13:24;;;;;;;14.02;8.73;;;;;;;;;;6188148;28;20022;-78
2022/08/18 09:16:43;;;;;;;12.98;7.85;;;;;;;;;;6187279;28;20493;-78
2022/08/18 09:19:43;;;;;;;17.15;9.30;;;;;;;;;;6196178;28;20121;-79
2022/08/18 09:22:57;;;;;;;11.68;8.55;;;;;;;;;;6194641;28;20747;-79
2022/08/18 09:26:18;;;;;;;13.82;8.88;;;;;;;;;;6190262;28;20382;-78
2022/08/18 09:29:22;;;;;;;12.52;9.13;;;;;;;;;;6192128;28;20057;-79
2022/08/18 09:32:23;;;;;;;15.77;8.88;;;;;;;;;;6197614;28;20041;-79
2022/08/18 09:35:30;;;;;;;12.43;8.63;;;;;;;;;;6187364;28;20101;-79
2022/08/18 09:41:59;;;;;;;10.80;8.23;;;;;;;;;;6185983;28;20399;-79
2022/08/18 09:45:02;;;;;;;12.05;8.13;;;;;;;;;;6190675;28;20038;-79
2022/08/18 09:48:22;;;;;;;13.52;8.98;;;;;;;;;;6196987;28;20026;-79
2022/08/18 09:51:34;;;;;;;12.75;8.75;;;;;;;;;;6192410;28;20035;-79
2022/08/18 09:54:47;;;;;;;13.45;9.02;;;;;;;;;;6195850;28;20019;-79
2022/08/18 09:57:47;;;;;;;14.00;9.25;;;;;;;;;;6190457;28;20053;-79
2022/08/18 10:01:07;;;;;;;12.27;9.20;;;;;;;;;;6193395;28;20006;-79
2022/08/18 10:04:13;;;;;;;16.02;8.48;;;;;;;;;;6192771;28;20522;-79
2022/08/18 10:07:16;;;;;;;11.77;8.85;;;;;;;;;;6193565;28;20026;-79
2022/08/18 10:10:29;;;;;;;11.98;8.32;;;;;;;;;;6193293;28;20420;-80
2022/08/18 10:13:39;;;;;;;13.35;8.88;;;;;;;;;;6195323;28;20037;-79
2022/08/18 10:16:39;;;;;;;;;;;;;;;;;;6195155;28;20379;-79
2022/08/18 10:20:02;;;;;;;14.37;9.63;;;;;;;;;;6194217;28;20346;-80
2022/08/18 10:23:04;;;;;;;14.50;9.02;;;;;;;;;;6194579;28;20026;-80
2022/08/18 10:26:04;;;;;;;15.57;9.35;;;;;;;;;;6176065;28;20495;-80
2022/08/18 10:29:11;;;;;;;13.33;9.80;;;;;;;;;;6182862;28;20030;-80
2022/08/18 10:32:12;;;;;;;14.57;9.95;;;;;;;;;;6190152;28;20054;-79
2022/08/18 10:35:31;;;;;;;13.15;9.35;;;;;;;;;;6192183;28;20079;-79
2022/08/18 10:38:40;;;;;;;10.35;8.70;;;;;;;;;;6196073;28;20034;-79
2022/08/18 10:42:04;;;;;;;13.82;8.95;;;;;;;;;;6192263;28;20022;-79
2022/08/18 10:45:23;;;;;;;14.07;9.05;;;;;;;;;;6190138;28;20030;-79
2022/08/18 10:48:29;;;;;;;16.30;9.90;;;;;;;;;;6190462;28;20023;-79
2022/08/18 10:51:39;;;;;;;15.85;8.95;;;;;;;;;;6194055;28;20089;-80
2022/08/18 10:54:42;;;;;;;12.43;9.20;;;;;;;;;;6192093;28;20017;-80
2022/08/18 10:57:48;;;;;;;12.57;8.68;;;;;;;;;;6186011;28;20077;-79
2022/08/18 11:00:51;;;;;;;13.05;9.85;;;;;;;;;;6196793;28;20042;-80
2022/08/18 11:03:51;;;;;;;14.23;9.35;;;;;;;;;;6193379;28;20474;-80
2022/08/18 11:06:59;;;;;;;15.13;9.85;;;;;;;;;;6190271;28;20014;-80
2022/08/18 11:09:59;;;;;;;13.93;9.18;;;;;;;;;;6195145;28;20030;-80
2022/08/18 11:13:09;;;;;;;12.10;8.68;;;;;;;;;;6195153;28;20447;-80
2022/08/18 11:16:23;;;;;;;14.15;9.05;;;;;;;;;;6199892;28;20482;-79
2022/08/18 11:19:24;;;;;;;13.45;9.15;;;;;;;;;;6190063;28;20042;-80
2022/08/18 11:22:25;;;;;;;17.37;9.50;;;;;;;;;;6186526;28;20022;-79
2022/08/18 11:25:30;;;;;;;16.10;8.32;;;;;;;;;;6189601;28;20019;-80
2022/08/18 11:28:30;;;;;;;12.00;9.15;;;;;;;;;;6193903;28;20114;-80
2022/08/18 11:31:31;;;;;;;14.77;8.23;;;;;;;;;;6198736;28;20018;-79
2022/08/18 11:34:34;;;;;;;15.18;9.02;;;;;;;;;;6199660;28;20015;-79
2022/08/18 11:37:42;;;;;;;10.32;8.88;;;;;;;;;;6197250;28;20019;-79
2022/08/18 11:40:44;;;;;;;12.65;8.18;;;;;;;;;;6198208;28;20010;-80
2022/08/18 11:43:45;;;;;;;13.63;7.85;;;;;;;;;;6197769;28;20011;-79
2022/08/18 11:46:45;;;;;;;14.77;9.30;;;;;;;;;;6190192;28;20058;-79
2022/08/18 11:49:51;;;;;;;19.37;8.00;;;;;;;;;;6192341;28;20077;-79
2022/08/18 11:52:51;;;;;;;12.80;8.55;;;;;;;;;;6194228;28;20014;-78
2022/08/18 11:56:03;;;;;;;13.82;8.68;;;;;;;;;;6201453;28;20014;-80
2022/08/18 11:59:08;;;;;;;14.10;8.45;;;;;;;;;;6196837;28;20050;-80
2022/08/18 12:02:09;;;;;;;10.40;7.88;;;;;;;;;;6188949;28;20025;-80
2022/08/18 12:05:10;;;;;;;15.20;8.40;;;;;;;;;;6190576;28;20038;-80
2022/08/18 12:08:36;;;;;;;13.03;8.97;;;;;;;;;;6183993;28;20026;-79
2022/08/18 12:11:47;;;;;;;14.43;8.35;;;;;;;;;;6194110;28;20022;-79
2022/08/18 12:14:55;;;;;;;11.25;8.63;;;;;;;;;;6194212;28;20018;-80
2022/08/18 12:17:56;;;;;;;13.55;7.80;;;;;;;;;;6188005;28;20027;-79
2022/08/18 12:20:57;;;;;;;14.73;9.20;;;;;;;;;;6196325;28;20548;-79
2022/08/18 12:23:57;;;;;;;13.00;8.48;;;;;;;;;;6198802;28;20027;-79
2022/08/18 12:26:58;;;;;;;11.77;7.93;;;;;;;;;;6198709;28;20022;-79
2022/08/18 12:30:02;;;;;;;11.32;7.13;;;;;;;;;;6194192;28;20046;-79
2022/08/18 12:33:02;;;;;;;11.75;7.75;;;;;;;;;;6190708;28;20022;-79
2022/08/18 12:36:03;;;;;;;16.47;9.00;;;;;;;;;;6196142;28;20039;-79
2022/08/18 12:39:03;;;;;;;15.65;8.38;;;;;;;;;;6180601;28;20026;-79
2022/08/18 12:42:03;;;;;;;13.20;8.43;;;;;;;;;;6196326;28;20026;-79
2022/08/18 12:45:04;;;;;;;12.13;7.00;;;;;;;;;;6183955;28;20266;-79
2022/08/18 12:48:04;;;;;;;11.48;7.78;;;;;;;;;;6185248;28;20074;-79
2022/08/18 12:51:05;;;;;;;10.20;8.20;;;;;;;;;;6198201;28;20023;-79
2022/08/18 12:54:07;;;;;;;15.30;7.18;;;;;;;;;;6210030;28;20429;-79
2022/08/18 12:57:10;;;;;;;10.20;7.95;;;;;;;;;;6190763;28;20050;-79
2022/08/18 13:00:10;;;;;;;13.95;7.82;;;;;;;;;;6205887;28;20033;-81
2022/08/18 13:03:11;;;;;;;12.85;6.90;;;;;;;;;;6204372;28;20022;-80
2022/08/18 13:06:11;;;;;;;12.52;7.45;;;;;;;;;;6199859;28;20034;-78
2022/08/18 13:09:12;;;;;;;12.13;7.20;;;;;;;;;;6194685;28;20024;-80
2022/08/18 13:12:13;;;;;;;9.90;7.37;;;;;;;;;;6192598;28;20034;-80
2022/08/18 13:15:13;;;;;;;10.75;7.20;;;;;;;;;;6191651;28;20383;-79
2022/08/18 13:18:13;;;;;;;10.70;8.07;;;;;;;;;;6192698;28;20026;-79
2022/08/18 13:21:15;;;;;;;14.03;8.93;;;;;;;;;;6196656;28;20041;-79
2022/08/18 13:24:15;;;;;;;12.45;7.07;;;;;;;;;;6192795;28;20258;-78
2022/08/18 13:27:21;;;;;;;15.30;7.57;;;;;;;;;;6195013;28;20509;-79
2022/08/18 13:30:22;;;;;;;10.00;7.10;;;;;;;;;;6207483;28;20493;-80
2022/08/18 13:33:26;;;;;;;12.18;6.97;;;;;;;;;;6206967;28;20101;-79
2022/08/18 13:36:43;;;;;;;11.18;6.93;;;;;;;;;;6201342;28;20053;-80
2022/08/18 13:39:43;;;;;;;12.10;7.45;;;;;;;;;;6203153;28;20104;-80
2022/08/18 13:42:47;;;;;;;13.17;6.80;;;;;;;;;;6206070;28;20089;-78
2022/08/18 13:45:49;;;;;;;15.30;8.50;;;;;;;;;;6204816;28;20433;-80
2022/08/18 13:48:49;;;;;;;11.13;6.93;;;;;;;;;;6196141;28;20095;-80
2022/08/18 13:51:50;;;;;;;12.40;7.32;;;;;;;;;;6194994;28;20101;-79
2022/08/18 13:54:51;;;;;;;10.23;7.43;;;;;;;;;;6195642;28;20031;-79
2022/08/18 13:57:52;;;;;;;9.73;7.47;;;;;;;;;;6196304;28;20498;-79
2022/08/18 14:00:55;;;;;;;12.23;7.33;;;;;;;;;;6191659;28;20081;-80
2022/08/18 14:03:55;;;;;;;10.25;6.95;;;;;;;;;;6197128;28;20256;-79
2022/08/18 14:06:55;;;;;;;9.87;6.43;;;;;;;;;;6188922;28;20034;-78
2022/08/18 14:09:56;;;;;;;15.40;7.30;;;;;;;;;;6194304;28;20122;-80
2022/08/18 14:12:58;;;;;;;11.35;7.22;;;;;;;;;;6196586;28;20022;-79
2022/08/18 14:16:00;;;;;;;12.35;7.18;;;;;;;;;;6194708;28;20018;-79
2022/08/18 14:28:57;;;;;;;13.00;7.60;;;;;;;;;;6198883;28;20023;-78
2022/08/18 14:31:57;;;;;;;14.10;6.87;;;;;;;;;;6192213;28;20029;-78
2022/08/18 14:34:58;;;;;;;11.73;6.77;;;;;;;;;;6185838;28;20075;-78
2022/08/18 14:38:00;;;;;;;13.70;7.13;;;;;;;;;;6190107;28;20062;-77
2022/08/18 14:41:05;;;;;;;9.40;6.82;;;;;;;;;;6181028;28;20019;-78
2022/08/18 14:44:05;;;;;;;11.07;6.65;;;;;;;;;;6196640;28;20010;-79
2022/08/18 14:47:06;;;;;;;13.45;6.50;;;;;;;;;;6187469;28;20014;-79
2022/08/18 14:50:09;;;;;;;10.05;6.68;;;;;;;;;;6196798;28;20027;-79
2022/08/18 14:53:09;;;;;;;10.93;7.60;;;;;;;;;;6188980;28;20018;-79
2022/08/18 14:56:11;;;;;;;12.65;6.95;;;;;;;;;;6203478;28;20058;-79
2022/08/18 14:59:11;;;;;;;10.23;7.38;;;;;;;;;;6192103;28;20496;-79
2022/08/18 15:02:11;;;;;;;10.55;7.13;;;;;;;;;;6198442;28;20022;-79
2022/08/18 15:05:12;;;;;;;10.00;7.50;;;;;;;;;;6198028;28;20148;-79
2022/08/18 15:08:12;;;;;;;10.52;8.02;;;;;;;;;;6198235;28;20337;-79
2022/08/18 15:11:12;;;;;;;11.40;7.90;;;;;;;;;;6200154;28;20407;-78
2022/08/18 15:14:16;;;;;;;13.70;8.13;;;;;;;;;;6196031;28;20018;-79
2022/08/18 15:17:16;;;;;;;14.65;7.90;;;;;;;;;;6191358;28;20360;-79
2022/08/18 15:20:16;;;;;;;11.35;7.07;;;;;;;;;;6199504;28;20044;-79
2022/08/18 15:26:37;;;;;;;10.43;7.30;;;;;;;;;;6188453;28;20018;-78
2022/08/18 15:29:37;;;;;;;10.18;7.80;;;;;;;;;;6194001;28;20042;-79
2022/08/18 15:32:37;;;;;;;12.50;8.43;;;;;;;;;;6194659;28;20025;-78
2022/08/18 15:35:39;;;;;;;11.00;8.27;;;;;;;;;;6195767;28;20022;-78
2022/08/18 15:38:39;;;;;;;11.35;7.28;;;;;;;;;;6196816;28;20041;-78
2022/08/18 15:41:43;;;;;;;13.03;7.73;;;;;;;;;;6198237;28;20463;-78
2022/08/18 15:44:46;;;;;;;11.88;7.47;;;;;;;;;;6198350;28;20033;-78
2022/08/18 15:47:50;;;;;;;11.05;7.60;;;;;;;;;;6197567;28;20435;-79
2022/08/18 15:50:50;;;;;;;11.50;7.22;;;;;;;;;;6194974;28;20054;-79
2022/08/18 15:53:51;;;;;;;11.38;7.55;;;;;;;;;;6192689;28;20014;-79
2022/08/18 15:56:51;;;;;;;9.38;7.40;;;;;;;;;;6197694;28;20035;-79
2022/08/18 15:59:51;;;;;;;13.63;7.18;;;;;;;;;;6199623;28;20765;-79
2022/08/18 16:02:57;;;;;;;16.17;7.18;;;;;;;;;;6197298;28;20471;-79
2022/08/18 16:05:57;;;;;;;12.35;8.02;;;;;;;;;;6197028;28;20041;-80
2022/08/18 16:08:57;;;;;;;;;;;;;;;;;;6199498;28;20423;-80
2022/08/18 16:11:58;;;;;;;15.57;7.93;;;;;;;;;;6199037;28;20579;-80
2022/08/18 16:14:58;;;;;;;;;;;;;;;;;;6197723;28;20106;-80
2022/08/18 16:17:58;;;;;;;11.13;7.87;;;;;;;;;;6195352;28;19910;-80
2022/08/18 16:20:58;;;;;;;;;;;;;;;;;;6198461;28;20541;-80
2022/08/18 16:23:59;;;;;;;15.63;7.35;;;;;;;;;;6198517;28;19894;-80
2022/08/18 16:26:59;;;;;;;;;;;;;;;;;;6197225;28;20624;-80
2022/08/18 16:29:59;;;;;;;11.95;6.93;;;;;;;;;;6197011;28;20048;-79
2022/08/18 16:33:01;;;;;;;;;;;;;;;;;;6198783;28;20089;-79
2022/08/18 16:36:03;;;;;;;12.05;6.88;;;;;;;;;;6192352;28;19992;-79
2022/08/18 16:39:03;;;;;;;15.38;7.32;;;;;;;;;;6191052;28;20030;-79
2022/08/18 16:42:03;;;;;;;;;;;;;;;;;;6187750;28;20372;-79
2022/08/18 16:45:04;;;;;;;11.88;7.32;;;;;;;;;;6199490;28;20309;-78
2022/08/18 16:48:06;;;;;;;12.40;7.35;;;;;;;;;;6191683;28;20100;-79
2022/08/18 16:51:10;;;;;;;12.70;7.03;;;;;;;;;;6193878;28;20022;-78
2022/08/18 16:54:11;;;;;;;13.35;8.15;;;;;;;;;;6189130;28;20479;-79
2022/08/18 16:57:11;;;;;;;;;;;;;;;;;;6192156;28;20455;-78
2022/08/18 17:06:50;;;;;;;12.70;7.38;;;;;;;;;;6199584;28;20042;-79
2022/08/18 17:09:51;;;;;;;13.65;7.60;;;;;;;;;;6190767;28;20553;-79
2022/08/18 17:12:51;;;;;;;;;;;;;;;;;;6196353;28;20034;-79
2022/08/18 17:15:51;;;;;;;10.98;8.60;;;;;;;;;;6192550;28;19929;-79
2022/08/18 17:18:52;;;;;;;10.82;7.70;;;;;;;;;;6197497;28;20501;-79
2022/08/18 17:21:52;;;;;;;12.85;7.93;;;;;;;;;;6193915;28;20026;-79
2022/08/18 17:24:55;;;;;;;14.43;9.03;;;;;;;;;;6192043;28;20082;-79
2022/08/18 17:27:56;;;;;;;13.18;8.25;;;;;;;;;;6189485;28;20026;-79
2022/08/18 17:30:56;;;;;;;15.40;8.63;;;;;;;;;;6197927;28;20018;-79
2022/08/18 17:34:03;;;;;;;13.00;8.17;;;;;;;;;;6194556;28;20493;-78
2022/08/18 17:37:06;;;;;;;13.60;8.40;;;;;;;;;;6196884;28;20780;-79
2022/08/18 17:40:16;;;;;;;11.43;8.73;;;;;;;;;;6195211;28;20757;-78
2022/08/18 17:43:18;;;;;;;12.43;8.13;;;;;;;;;;6197040;28;20018;-78
2022/08/18 17:46:26;;;;;;;13.05;8.57;;;;;;;;;;6194533;28;20018;-78
2022/08/18 17:52:50;;;;;;;17.70;9.65;;;;;;;;;;6191482;28;20022;-79
2022/08/18 17:56:04;;;;;;;17.75;9.40;;;;;;;;;;6192664;28;20045;-79
2022/08/18 17:59:12;;;;;;;14.90;9.88;;;;;;;;;;6189681;28;20055;-78
2022/08/18 18:02:14;;;;;;;14.13;9.63;;;;;;;;;;6192436;28;20044;-78
2022/08/18 18:05:16;;;;;;;16.13;9.38;;;;;;;;;;6194971;28;20010;-78
2022/08/18 18:08:17;;;;;;;13.30;8.63;;;;;;;;;;6193915;28;20025;-80
2022/08/18 18:11:22;;;;;;;17.53;9.27;;;;;;;;;;6190362;28;20478;-78
2022/08/18 18:14:31;;;;;;;16.92;9.40;;;;;;;;;;6192477;28;20057;-79
2022/08/18 18:17:36;;;;;;;14.90;9.68;;;;;;;;;;6185005;28;20022;-79
2022/08/18 18:20:39;;;;;;;17.92;9.88;;;;;;;;;;6187393;28;20101;-77
2022/08/18 18:23:41;;;;;;;15.07;9.75;;;;;;;;;;6180770;28;20709;-79
2022/08/18 18:26:46;;;;;;;14.85;10.27;;;;;;;;;;6187664;28;20026;-79
2022/08/18 18:29:54;;;;;;;14.88;9.45;;;;;;;;;;6189689;28;20240;-79
2022/08/18 18:32:56;;;;;;;19.45;10.25;;;;;;;;;;6194028;28;20018;-78
2022/08/18 18:35:58;;;;;;;15.13;9.90;;;;;;;;;;6189752;28;20022;-78
2022/08/18 18:39:18;;;;;;;17.45;10.57;;;;;;;;;;6196915;28;20026;-79
2022/08/18 18:42:23;;;;;;;21.70;11.70;;;;;;;;;;6208849;28;20021;-77
2022/08/18 18:45:26;;;;;;;18.77;10.88;;;;;;;;;;6192838;28;20105;-78
2022/08/18 18:48:27;;;;;;;19.17;11.25;;;;;;;;;;6177740;28;20073;-78